sensor_id;sensor_type;location;lat;lon;timestamp;noise_LAeq;noise_LA_min;noise_LA_max;noise_LA01;noise_LA95
73638;Laerm;53743;51.100;5.874;2023-08-01T00:00:34;33.21;30.55;42.59;;
73638;Laerm;53743;51.100;5.874;2023-08-01T00:01:35;65.61;30.72;79.13;;
73638;Laerm;53743;51.100;5.874;2023-08-01T00:02:38;49.53;30.85;65.48;;
73638;Laerm;53743;51.100;5.874;2023-08-01T00:03:39;57.97;31.75;71.76;;
73638;Laerm;53743;51.100;5.874;2023-08-01T00:04:41;59.78;38.81;74.82;;
73638;Laerm;53743;51.100;5.874;2023-08-01T00:05:43;44.15;38.76;55.66;;
73638;Laerm;53743;51.100;5.874;2023-08-01T00:06:46;63.25;38.50;74.87;;
73638;Laerm;53743;51.100;5.874;2023-08-01T00:07:47;40.79;33.81;56.52;;
73638;Laerm;53743;51.100;5.874;2023-08-01T00:08:50;61.32;33.82;78.86;;
73638;Laerm;53743;51.100;5.874;2023-08-01T00:09:51;42.64;35.80;62.77;;
73638;Laerm;53743;51.100;5.874;2023-08-01T00:10:53;42.76;33.68;70.06;;
73638;Laerm;53743;51.100;5.874;2023-08-01T00:11:54;62.29;33.55;77.38;;
73638;Laerm;53743;51.100;5.874;2023-08-01T00:12:56;41.75;35.67;54.38;;
73638;Laerm;53743;51.100;5.874;2023-08-01T00:13:57;42.66;34.88;62.01;;
73638;Laerm;53743;51.100;5.874;2023-08-01T00:14:59;42.21;37.15;58.36;;
73638;Laerm;53743;51.100;5.874;2023-08-01T00:16:01;47.51;34.30;79.02;;
73638;Laerm;53743;51.100;5.874;2023-08-01T00:17:03;56.73;33.96;70.82;;
73638;Laerm;53743;51.100;5.874;2023-08-01T00:18:05;37.28;32.08;49.99;;
73638;Laerm;53743;51.100;5.874;2023-08-01T00:19:10;38.98;31.98;68.55;;
73638;Laerm;53743;51.100;5.874;2023-08-01T00:20:11;34.45;31.43;48.13;;
73638;Laerm;53743;51.100;5.874;2023-08-01T00:21:12;44.31;30.99;60.76;;
73638;Laerm;53743;51.100;5.874;2023-08-01T00:22:14;52.50;32.39;66.08;;
73638;Laerm;53743;51.100;5.874;2023-08-01T00:23:15;62.90;31.57;79.49;;
73638;Laerm;53743;51.100;5.874;2023-08-01T00:24:19;34.65;30.72;61.41;;
73638;Laerm;53743;51.100;5.874;2023-08-01T00:25:20;34.35;30.47;57.27;;
73638;Laerm;53743;51.100;5.874;2023-08-01T00:26:22;32.94;30.18;42.58;;
73638;Laerm;53743;51.100;5.874;2023-08-01T00:27:23;32.50;30.40;39.69;;
73638;Laerm;53743;51.100;5.874;2023-08-01T00:28:26;34.74;30.49;44.44;;
73638;Laerm;53743;51.100;5.874;2023-08-01T00:29:27;33.91;30.97;46.00;;
73638;Laerm;53743;51.100;5.874;2023-08-01T00:30:29;60.74;31.32;76.23;;
73638;Laerm;53743;51.100;5.874;2023-08-01T00:31:30;38.74;31.74;49.97;;
73638;Laerm;53743;51.100;5.874;2023-08-01T00:32:32;35.83;30.98;45.72;;
73638;Laerm;53743;51.100;5.874;2023-08-01T00:33:34;33.24;30.71;42.12;;
73638;Laerm;53743;51.100;5.874;2023-08-01T00:34:37;32.67;29.91;46.92;;
73638;Laerm;53743;51.100;5.874;2023-08-01T00:35:38;32.84;30.02;44.85;;
73638;Laerm;53743;51.100;5.874;2023-08-01T00:36:40;33.73;30.72;43.11;;
73638;Laerm;53743;51.100;5.874;2023-08-01T00:37:41;33.50;30.41;38.36;;
73638;Laerm;53743;51.100;5.874;2023-08-01T00:38:43;32.75;30.33;38.35;;
73638;Laerm;53743;51.100;5.874;2023-08-01T00:39:45;32.59;29.80;44.99;;
73638;Laerm;53743;51.100;5.874;2023-08-01T00:40:47;31.52;29.61;40.91;;
73638;Laerm;53743;51.100;5.874;2023-08-01T00:41:49;59.19;32.37;73.50;;
73638;Laerm;53743;51.100;5.874;2023-08-01T00:42:51;56.43;31.99;70.04;;
73638;Laerm;53743;51.100;5.874;2023-08-01T00:43:56;32.43;29.51;39.68;;
73638;Laerm;53743;51.100;5.874;2023-08-01T00:45:01;31.22;29.26;47.00;;
73638;Laerm;53743;51.100;5.874;2023-08-01T00:46:05;33.32;30.04;58.39;;
73638;Laerm;53743;51.100;5.874;2023-08-01T00:47:09;32.59;29.07;42.84;;
73638;Laerm;53743;51.100;5.874;2023-08-01T00:48:11;31.99;29.31;44.33;;
73638;Laerm;53743;51.100;5.874;2023-08-01T00:49:14;31.89;29.60;36.65;;
73638;Laerm;53743;51.100;5.874;2023-08-01T00:50:16;30.73;28.65;40.85;;
73638;Laerm;53743;51.100;5.874;2023-08-01T00:51:21;31.43;29.20;42.44;;
73638;Laerm;53743;51.100;5.874;2023-08-01T00:52:22;31.97;29.59;42.13;;
73638;Laerm;53743;51.100;5.874;2023-08-01T00:53:25;31.57;29.64;42.46;;
73638;Laerm;53743;51.100;5.874;2023-08-01T00:54:27;31.69;29.60;38.78;;
73638;Laerm;53743;51.100;5.874;2023-08-01T00:55:32;31.21;29.36;38.05;;
73638;Laerm;53743;51.100;5.874;2023-08-01T00:56:36;32.75;29.84;40.03;;
73638;Laerm;53743;51.100;5.874;2023-08-01T00:57:40;36.27;31.94;43.99;;
73638;Laerm;53743;51.100;5.874;2023-08-01T00:58:41;34.73;30.94;42.86;;
73638;Laerm;53743;51.100;5.874;2023-08-01T00:59:42;33.87;29.95;44.57;;
73638;Laerm;53743;51.100;5.874;2023-08-01T01:00:45;31.43;29.16;41.84;;
73638;Laerm;53743;51.100;5.874;2023-08-01T01:01:46;31.90;29.84;40.55;;
73638;Laerm;53743;51.100;5.874;2023-08-01T01:02:48;33.12;30.53;46.97;;
73638;Laerm;53743;51.100;5.874;2023-08-01T01:03:51;32.30;30.55;43.74;;
73638;Laerm;53743;51.100;5.874;2023-08-01T01:04:53;32.15;30.30;41.72;;
73638;Laerm;53743;51.100;5.874;2023-08-01T01:06:03;32.60;30.53;38.45;;
73638;Laerm;53743;51.100;5.874;2023-08-01T01:07:09;32.88;31.08;40.79;;
73638;Laerm;53743;51.100;5.874;2023-08-01T01:08:10;32.46;30.64;40.94;;
73638;Laerm;53743;51.100;5.874;2023-08-01T01:10:25;32.94;30.39;39.89;;
73638;Laerm;53743;51.100;5.874;2023-08-01T01:11:28;36.19;31.46;45.71;;
73638;Laerm;53743;51.100;5.874;2023-08-01T01:12:29;59.02;35.06;74.19;;
73638;Laerm;53743;51.100;5.874;2023-08-01T01:13:31;57.51;31.10;71.97;;
73638;Laerm;53743;51.100;5.874;2023-08-01T01:14:32;33.05;30.92;48.96;;
73638;Laerm;53743;51.100;5.874;2023-08-01T01:15:34;34.32;31.14;44.34;;
73638;Laerm;53743;51.100;5.874;2023-08-01T01:16:35;33.64;31.01;42.62;;
73638;Laerm;53743;51.100;5.874;2023-08-01T01:17:38;33.40;31.05;42.00;;
73638;Laerm;53743;51.100;5.874;2023-08-01T01:18:39;32.79;30.38;39.88;;
73638;Laerm;53743;51.100;5.874;2023-08-01T01:19:41;33.94;31.29;40.87;;
73638;Laerm;53743;51.100;5.874;2023-08-01T01:20:43;35.95;31.20;53.51;;
73638;Laerm;53743;51.100;5.874;2023-08-01T01:21:47;33.35;31.51;38.83;;
73638;Laerm;53743;51.100;5.874;2023-08-01T01:22:53;33.95;31.70;39.71;;
73638;Laerm;53743;51.100;5.874;2023-08-01T01:23:56;36.44;32.10;49.23;;
73638;Laerm;53743;51.100;5.874;2023-08-01T01:25:02;36.38;32.01;50.76;;
73638;Laerm;53743;51.100;5.874;2023-08-01T01:26:07;57.74;32.78;73.38;;
73638;Laerm;53743;51.100;5.874;2023-08-01T01:27:12;57.22;32.37;71.94;;
73638;Laerm;53743;51.100;5.874;2023-08-01T01:28:16;40.41;31.91;53.79;;
73638;Laerm;53743;51.100;5.874;2023-08-01T01:29:20;33.96;31.58;45.59;;
73638;Laerm;53743;51.100;5.874;2023-08-01T01:30:22;60.67;32.49;77.44;;
73638;Laerm;53743;51.100;5.874;2023-08-01T01:31:25;34.65;31.06;45.93;;
73638;Laerm;53743;51.100;5.874;2023-08-01T01:32:28;33.23;30.87;42.48;;
73638;Laerm;53743;51.100;5.874;2023-08-01T01:33:30;34.53;31.07;44.59;;
73638;Laerm;53743;51.100;5.874;2023-08-01T01:34:32;32.43;30.31;38.43;;
73638;Laerm;53743;51.100;5.874;2023-08-01T01:35:34;32.67;30.47;39.98;;
73638;Laerm;53743;51.100;5.874;2023-08-01T01:36:37;33.31;30.58;49.24;;
73638;Laerm;53743;51.100;5.874;2023-08-01T01:37:40;57.44;33.15;71.23;;
73638;Laerm;53743;51.100;5.874;2023-08-01T01:38:42;59.35;31.53;75.66;;
73638;Laerm;53743;51.100;5.874;2023-08-01T01:39:43;33.82;31.08;42.45;;
73638;Laerm;53743;51.100;5.874;2023-08-01T01:40:45;34.23;30.70;43.92;;
73638;Laerm;53743;51.100;5.874;2023-08-01T01:41:46;33.25;30.33;38.48;;
73638;Laerm;53743;51.100;5.874;2023-08-01T01:42:49;33.52;30.74;41.78;;
73638;Laerm;53743;51.100;5.874;2023-08-01T01:43:50;33.23;31.22;39.07;;
73638;Laerm;53743;51.100;5.874;2023-08-01T01:44:52;57.33;31.53;72.06;;
73638;Laerm;53743;51.100;5.874;2023-08-01T01:45:54;57.15;31.38;72.67;;
73638;Laerm;53743;51.100;5.874;2023-08-01T01:46:56;34.64;31.35;47.04;;
73638;Laerm;53743;51.100;5.874;2023-08-01T01:47:57;37.56;31.89;50.09;;
73638;Laerm;53743;51.100;5.874;2023-08-01T01:48:59;34.78;32.27;45.40;;
73638;Laerm;53743;51.100;5.874;2023-08-01T01:50:00;34.49;31.88;41.66;;
73638;Laerm;53743;51.100;5.874;2023-08-01T01:51:01;35.41;31.72;56.97;;
73638;Laerm;53743;51.100;5.874;2023-08-01T01:52:05;59.85;31.53;74.39;;
73638;Laerm;53743;51.100;5.874;2023-08-01T01:53:06;33.50;30.54;38.84;;
73638;Laerm;53743;51.100;5.874;2023-08-01T01:54:08;34.07;30.78;45.70;;
73638;Laerm;53743;51.100;5.874;2023-08-01T01:55:10;35.09;31.31;51.32;;
73638;Laerm;53743;51.100;5.874;2023-08-01T01:56:13;34.03;31.10;42.22;;
73638;Laerm;53743;51.100;5.874;2023-08-01T01:57:14;34.73;31.14;49.06;;
73638;Laerm;53743;51.100;5.874;2023-08-01T01:58:16;34.06;31.63;41.81;;
73638;Laerm;53743;51.100;5.874;2023-08-01T01:59:17;33.64;31.13;40.12;;
73638;Laerm;53743;51.100;5.874;2023-08-01T02:00:19;34.18;31.46;43.84;;
73638;Laerm;53743;51.100;5.874;2023-08-01T02:01:21;34.97;31.69;44.63;;
73638;Laerm;53743;51.100;5.874;2023-08-01T02:02:23;34.45;31.79;42.69;;
73638;Laerm;53743;51.100;5.874;2023-08-01T02:03:24;35.06;31.90;42.58;;
73638;Laerm;53743;51.100;5.874;2023-08-01T02:04:27;56.75;32.67;70.79;;
73638;Laerm;53743;51.100;5.874;2023-08-01T02:05:28;33.37;31.21;39.11;;
73638;Laerm;53743;51.100;5.874;2023-08-01T02:06:30;33.53;30.76;39.03;;
73638;Laerm;53743;51.100;5.874;2023-08-01T02:07:33;56.64;32.65;71.16;;
73638;Laerm;53743;51.100;5.874;2023-08-01T02:08:34;35.91;31.83;45.87;;
73638;Laerm;53743;51.100;5.874;2023-08-01T02:09:36;34.77;31.71;42.33;;
73638;Laerm;53743;51.100;5.874;2023-08-01T02:10:38;34.19;31.60;42.40;;
73638;Laerm;53743;51.100;5.874;2023-08-01T02:11:40;33.18;30.57;38.15;;
73638;Laerm;53743;51.100;5.874;2023-08-01T02:12:41;32.36;30.42;35.68;;
73638;Laerm;53743;51.100;5.874;2023-08-01T02:13:43;33.95;30.73;47.38;;
73638;Laerm;53743;51.100;5.874;2023-08-01T02:14:44;34.13;31.37;40.61;;
73638;Laerm;53743;51.100;5.874;2023-08-01T02:15:47;35.86;31.40;43.62;;
73638;Laerm;53743;51.100;5.874;2023-08-01T02:16:48;34.11;31.22;40.43;;
73638;Laerm;53743;51.100;5.874;2023-08-01T02:17:50;33.54;31.20;39.71;;
73638;Laerm;53743;51.100;5.874;2023-08-01T02:18:51;33.80;31.36;41.84;;
73638;Laerm;53743;51.100;5.874;2023-08-01T02:19:53;34.29;31.21;46.33;;
73638;Laerm;53743;51.100;5.874;2023-08-01T02:20:54;34.59;31.54;42.05;;
73638;Laerm;53743;51.100;5.874;2023-08-01T02:21:56;35.00;32.59;39.04;;
73638;Laerm;53743;51.100;5.874;2023-08-01T02:23:00;34.18;31.90;39.06;;
73638;Laerm;53743;51.100;5.874;2023-08-01T02:24:02;34.07;31.56;42.00;;
73638;Laerm;53743;51.100;5.874;2023-08-01T02:25:05;34.05;31.58;40.81;;
73638;Laerm;53743;51.100;5.874;2023-08-01T02:26:07;34.28;31.34;44.75;;
73638;Laerm;53743;51.100;5.874;2023-08-01T02:27:09;34.57;30.76;51.14;;
73638;Laerm;53743;51.100;5.874;2023-08-01T02:28:11;56.58;32.15;71.60;;
73638;Laerm;53743;51.100;5.874;2023-08-01T02:29:13;35.86;32.01;41.67;;
73638;Laerm;53743;51.100;5.874;2023-08-01T02:30:15;55.73;32.38;69.87;;
73638;Laerm;53743;51.100;5.874;2023-08-01T02:31:17;43.93;32.36;59.53;;
73638;Laerm;53743;51.100;5.874;2023-08-01T02:32:19;36.39;32.73;42.24;;
73638;Laerm;53743;51.100;5.874;2023-08-01T02:33:21;57.11;36.18;71.24;;
73638;Laerm;53743;51.100;5.874;2023-08-01T02:34:23;53.32;35.21;68.98;;
73638;Laerm;53743;51.100;5.874;2023-08-01T02:35:24;55.44;34.09;72.98;;
73638;Laerm;53743;51.100;5.874;2023-08-01T02:36:26;35.29;32.20;47.11;;
73638;Laerm;53743;51.100;5.874;2023-08-01T02:37:27;34.01;31.90;40.41;;
73638;Laerm;53743;51.100;5.874;2023-08-01T02:38:30;37.06;32.52;46.88;;
73638;Laerm;53743;51.100;5.874;2023-08-01T02:39:32;35.32;32.71;39.86;;
73638;Laerm;53743;51.100;5.874;2023-08-01T02:40:34;35.16;32.57;43.65;;
73638;Laerm;53743;51.100;5.874;2023-08-01T02:41:35;38.89;33.44;56.83;;
73638;Laerm;53743;51.100;5.874;2023-08-01T02:42:37;55.59;33.93;72.14;;
73638;Laerm;53743;51.100;5.874;2023-08-01T02:43:38;34.61;31.69;44.79;;
73638;Laerm;53743;51.100;5.874;2023-08-01T02:44:41;54.31;31.29;69.05;;
73638;Laerm;53743;51.100;5.874;2023-08-01T02:45:42;33.89;31.60;43.48;;
73638;Laerm;53743;51.100;5.874;2023-08-01T02:46:44;35.71;32.40;49.72;;
73638;Laerm;53743;51.100;5.874;2023-08-01T02:47:45;34.49;31.97;40.07;;
73638;Laerm;53743;51.100;5.874;2023-08-01T02:48:47;36.94;32.01;45.72;;
73638;Laerm;53743;51.100;5.874;2023-08-01T02:49:49;60.42;32.89;75.75;;
73638;Laerm;53743;51.100;5.874;2023-08-01T02:50:51;43.87;32.30;59.20;;
73638;Laerm;53743;51.100;5.874;2023-08-01T02:51:52;59.15;33.80;73.57;;
73638;Laerm;53743;51.100;5.874;2023-08-01T02:52:54;47.93;32.45;63.44;;
73638;Laerm;53743;51.100;5.874;2023-08-01T02:53:56;34.12;31.83;40.72;;
73638;Laerm;53743;51.100;5.874;2023-08-01T02:54:58;33.87;31.10;39.38;;
73638;Laerm;53743;51.100;5.874;2023-08-01T02:55:59;33.73;31.38;37.69;;
73638;Laerm;53743;51.100;5.874;2023-08-01T02:57:02;34.68;31.34;40.74;;
73638;Laerm;53743;51.100;5.874;2023-08-01T02:58:03;33.81;31.58;37.39;;
73638;Laerm;53743;51.100;5.874;2023-08-01T02:59:05;33.76;31.31;35.95;;
73638;Laerm;53743;51.100;5.874;2023-08-01T03:00:08;52.59;31.41;67.60;;
73638;Laerm;53743;51.100;5.874;2023-08-01T03:01:12;36.67;31.93;46.52;;
73638;Laerm;53743;51.100;5.874;2023-08-01T03:02:14;56.25;33.33;72.41;;
73638;Laerm;53743;51.100;5.874;2023-08-01T03:03:16;57.82;35.21;70.22;;
73638;Laerm;53743;51.100;5.874;2023-08-01T03:04:17;56.10;32.17;70.36;;
73638;Laerm;53743;51.100;5.874;2023-08-01T03:05:19;54.50;34.70;69.14;;
73638;Laerm;53743;51.100;5.874;2023-08-01T03:06:20;59.32;33.44;75.77;;
73638;Laerm;53743;51.100;5.874;2023-08-01T03:07:22;55.26;31.17;70.98;;
73638;Laerm;53743;51.100;5.874;2023-08-01T03:08:24;32.90;30.60;37.81;;
73638;Laerm;53743;51.100;5.874;2023-08-01T03:09:27;33.24;30.76;38.18;;
73638;Laerm;53743;51.100;5.874;2023-08-01T03:10:28;33.66;30.93;36.38;;
73638;Laerm;53743;51.100;5.874;2023-08-01T03:11:30;34.78;31.54;39.59;;
73638;Laerm;53743;51.100;5.874;2023-08-01T03:12:32;54.61;33.48;67.83;;
73638;Laerm;53743;51.100;5.874;2023-08-01T03:13:34;35.42;33.12;39.63;;
73638;Laerm;53743;51.100;5.874;2023-08-01T03:14:35;34.71;32.36;37.23;;
73638;Laerm;53743;51.100;5.874;2023-08-01T03:15:37;34.19;31.52;37.72;;
73638;Laerm;53743;51.100;5.874;2023-08-01T03:16:38;34.03;31.15;37.82;;
73638;Laerm;53743;51.100;5.874;2023-08-01T03:17:40;34.57;31.70;37.55;;
73638;Laerm;53743;51.100;5.874;2023-08-01T03:18:42;36.68;33.45;56.49;;
73638;Laerm;53743;51.100;5.874;2023-08-01T03:19:44;57.17;33.28;70.43;;
73638;Laerm;53743;51.100;5.874;2023-08-01T03:20:46;37.40;32.39;47.90;;
73638;Laerm;53743;51.100;5.874;2023-08-01T03:21:48;36.10;32.97;45.74;;
73638;Laerm;53743;51.100;5.874;2023-08-01T03:22:49;60.15;36.67;73.36;;
73638;Laerm;53743;51.100;5.874;2023-08-01T03:23:50;60.53;34.59;72.46;;
73638;Laerm;53743;51.100;5.874;2023-08-01T03:24:54;38.27;33.75;51.68;;
73638;Laerm;53743;51.100;5.874;2023-08-01T03:25:56;38.77;33.84;51.21;;
73638;Laerm;53743;51.100;5.874;2023-08-01T03:26:58;35.86;33.05;40.65;;
73638;Laerm;53743;51.100;5.874;2023-08-01T03:27:59;61.59;35.61;73.69;;
73638;Laerm;53743;51.100;5.874;2023-08-01T03:29:00;36.67;33.47;47.04;;
73638;Laerm;53743;51.100;5.874;2023-08-01T03:30:03;36.53;33.97;45.60;;
73638;Laerm;53743;51.100;5.874;2023-08-01T03:31:05;35.83;32.68;50.50;;
73638;Laerm;53743;51.100;5.874;2023-08-01T03:32:10;34.84;32.44;39.02;;
73638;Laerm;53743;51.100;5.874;2023-08-01T03:33:11;35.25;33.04;38.99;;
73638;Laerm;53743;51.100;5.874;2023-08-01T03:34:13;35.14;32.53;37.83;;
73638;Laerm;53743;51.100;5.874;2023-08-01T03:35:14;55.40;33.36;71.25;;
73638;Laerm;53743;51.100;5.874;2023-08-01T03:36:16;35.30;32.12;38.58;;
73638;Laerm;53743;51.100;5.874;2023-08-01T03:37:17;41.71;33.86;55.56;;
73638;Laerm;53743;51.100;5.874;2023-08-01T03:38:19;60.40;33.07;79.52;;
73638;Laerm;53743;51.100;5.874;2023-08-01T03:39:21;36.19;33.74;39.17;;
73638;Laerm;53743;51.100;5.874;2023-08-01T03:40:24;37.07;32.96;43.96;;
73638;Laerm;53743;51.100;5.874;2023-08-01T03:41:26;35.48;32.47;42.24;;
73638;Laerm;53743;51.100;5.874;2023-08-01T03:42:28;60.72;33.38;75.23;;
73638;Laerm;53743;51.100;5.874;2023-08-01T03:43:31;57.45;34.42;72.30;;
73638;Laerm;53743;51.100;5.874;2023-08-01T03:44:32;41.11;33.46;53.79;;
73638;Laerm;53743;51.100;5.874;2023-08-01T03:45:34;35.76;33.10;39.74;;
73638;Laerm;53743;51.100;5.874;2023-08-01T03:46:35;54.93;34.89;69.34;;
73638;Laerm;53743;51.100;5.874;2023-08-01T03:47:37;55.49;33.88;69.84;;
73638;Laerm;53743;51.100;5.874;2023-08-01T03:48:38;37.72;33.49;51.62;;
73638;Laerm;53743;51.100;5.874;2023-08-01T03:49:41;57.69;34.32;70.85;;
73638;Laerm;53743;51.100;5.874;2023-08-01T03:50:42;36.37;33.07;42.47;;
73638;Laerm;53743;51.100;5.874;2023-08-01T03:51:44;57.46;33.89;70.74;;
73638;Laerm;53743;51.100;5.874;2023-08-01T03:52:46;56.33;33.50;72.75;;
73638;Laerm;53743;51.100;5.874;2023-08-01T03:53:48;39.56;33.34;54.31;;
73638;Laerm;53743;51.100;5.874;2023-08-01T03:54:54;55.30;33.91;70.12;;
73638;Laerm;53743;51.100;5.874;2023-08-01T03:55:57;36.46;33.61;40.89;;
73638;Laerm;53743;51.100;5.874;2023-08-01T03:56:59;39.64;33.49;53.67;;
73638;Laerm;53743;51.100;5.874;2023-08-01T03:58:01;53.99;33.47;70.30;;
73638;Laerm;53743;51.100;5.874;2023-08-01T03:59:04;59.96;32.65;78.64;;
73638;Laerm;53743;51.100;5.874;2023-08-01T04:00:11;60.60;35.48;75.81;;
73638;Laerm;53743;51.100;5.874;2023-08-01T04:01:14;53.85;34.49;71.72;;
73638;Laerm;53743;51.100;5.874;2023-08-01T04:02:16;61.51;33.94;75.07;;
73638;Laerm;53743;51.100;5.874;2023-08-01T04:03:18;41.16;34.79;51.85;;
73638;Laerm;53743;51.100;5.874;2023-08-01T04:04:20;57.25;34.38;71.85;;
73638;Laerm;53743;51.100;5.874;2023-08-01T04:05:21;56.15;35.45;69.99;;
73638;Laerm;53743;51.100;5.874;2023-08-01T04:06:24;52.84;35.33;68.30;;
73638;Laerm;53743;51.100;5.874;2023-08-01T04:07:25;37.23;34.59;41.39;;
73638;Laerm;53743;51.100;5.874;2023-08-01T04:08:27;63.55;38.00;74.91;;
73638;Laerm;53743;51.100;5.874;2023-08-01T04:09:29;37.99;34.51;43.87;;
73638;Laerm;53743;51.100;5.874;2023-08-01T04:10:31;38.06;34.87;44.13;;
73638;Laerm;53743;51.100;5.874;2023-08-01T04:11:33;40.20;34.90;53.78;;
73638;Laerm;53743;51.100;5.874;2023-08-01T04:12:35;56.13;35.19;70.03;;
73638;Laerm;53743;51.100;5.874;2023-08-01T04:13:37;52.71;34.03;68.18;;
73638;Laerm;53743;51.100;5.874;2023-08-01T04:14:39;61.84;34.73;75.88;;
73638;Laerm;53743;51.100;5.874;2023-08-01T04:15:40;60.31;35.06;75.72;;
73638;Laerm;53743;51.100;5.874;2023-08-01T04:16:42;62.38;35.76;76.57;;
73638;Laerm;53743;51.100;5.874;2023-08-01T04:17:43;57.68;35.13;72.88;;
73638;Laerm;53743;51.100;5.874;2023-08-01T04:18:45;60.41;35.25;72.05;;
73638;Laerm;53743;51.100;5.874;2023-08-01T04:19:46;61.79;36.21;76.02;;
73638;Laerm;53743;51.100;5.874;2023-08-01T04:20:48;62.08;36.19;73.65;;
73638;Laerm;53743;51.100;5.874;2023-08-01T04:21:49;56.59;34.51;73.75;;
73638;Laerm;53743;51.100;5.874;2023-08-01T04:22:51;37.81;34.77;45.63;;
73638;Laerm;53743;51.100;5.874;2023-08-01T04:23:52;62.36;35.92;76.97;;
73638;Laerm;53743;51.100;5.874;2023-08-01T04:24:55;55.93;36.11;74.05;;
73638;Laerm;53743;51.100;5.874;2023-08-01T04:25:56;57.09;34.68;73.12;;
73638;Laerm;53743;51.100;5.874;2023-08-01T04:27:00;62.47;35.08;77.43;;
73638;Laerm;53743;51.100;5.874;2023-08-01T04:28:01;55.36;35.40;68.31;;
73638;Laerm;53743;51.100;5.874;2023-08-01T04:29:03;39.58;35.84;45.99;;
73638;Laerm;53743;51.100;5.874;2023-08-01T04:30:06;42.58;35.19;55.68;;
73638;Laerm;53743;51.100;5.874;2023-08-01T04:31:08;62.17;38.39;75.26;;
73638;Laerm;53743;51.100;5.874;2023-08-01T04:32:10;39.29;34.83;45.96;;
73638;Laerm;53743;51.100;5.874;2023-08-01T04:33:13;61.29;38.33;73.68;;
73638;Laerm;53743;51.100;5.874;2023-08-01T04:34:15;61.26;38.59;76.33;;
73638;Laerm;53743;51.100;5.874;2023-08-01T04:35:16;59.74;35.27;71.31;;
73638;Laerm;53743;51.100;5.874;2023-08-01T04:36:18;58.20;37.03;71.78;;
73638;Laerm;53743;51.100;5.874;2023-08-01T04:37:19;39.41;35.32;50.84;;
73638;Laerm;53743;51.100;5.874;2023-08-01T04:38:23;58.78;37.50;69.85;;
73638;Laerm;53743;51.100;5.874;2023-08-01T04:39:24;65.63;44.59;76.27;;
73638;Laerm;53743;51.100;5.874;2023-08-01T04:40:26;63.18;38.60;78.30;;
73638;Laerm;53743;51.100;5.874;2023-08-01T04:41:28;58.63;35.56;76.98;;
73638;Laerm;53743;51.100;5.874;2023-08-01T04:42:31;64.79;39.64;75.57;;
73638;Laerm;53743;51.100;5.874;2023-08-01T04:43:32;45.49;36.50;59.10;;
73638;Laerm;53743;51.100;5.874;2023-08-01T04:44:34;62.60;34.94;74.93;;
73638;Laerm;53743;51.100;5.874;2023-08-01T04:45:36;61.54;35.70;72.44;;
73638;Laerm;53743;51.100;5.874;2023-08-01T04:46:38;61.17;38.38;75.43;;
73638;Laerm;53743;51.100;5.874;2023-08-01T04:47:39;62.03;36.45;72.52;;
73638;Laerm;53743;51.100;5.874;2023-08-01T04:48:41;61.44;42.48;73.12;;
73638;Laerm;53743;51.100;5.874;2023-08-01T04:49:42;61.98;36.89;78.53;;
73638;Laerm;53743;51.100;5.874;2023-08-01T04:50:44;58.12;36.13;77.05;;
73638;Laerm;53743;51.100;5.874;2023-08-01T04:51:47;63.95;41.25;79.00;;
73638;Laerm;53743;51.100;5.874;2023-08-01T04:52:49;62.42;36.42;75.15;;
73638;Laerm;53743;51.100;5.874;2023-08-01T04:53:50;42.86;35.15;53.23;;
73638;Laerm;53743;51.100;5.874;2023-08-01T04:54:52;52.52;35.00;68.96;;
73638;Laerm;53743;51.100;5.874;2023-08-01T04:55:53;64.33;45.67;74.23;;
73638;Laerm;53743;51.100;5.874;2023-08-01T04:56:55;59.17;36.82;73.23;;
73638;Laerm;53743;51.100;5.874;2023-08-01T04:57:57;44.89;35.82;59.61;;
73638;Laerm;53743;51.100;5.874;2023-08-01T04:59:00;62.25;36.07;75.42;;
73638;Laerm;53743;51.100;5.874;2023-08-01T05:00:03;62.16;44.13;72.66;;
73638;Laerm;53743;51.100;5.874;2023-08-01T05:01:06;61.03;39.49;73.57;;
73638;Laerm;53743;51.100;5.874;2023-08-01T05:02:07;60.14;36.48;73.32;;
73638;Laerm;53743;51.100;5.874;2023-08-01T05:03:12;56.20;38.10;69.36;;
73638;Laerm;53743;51.100;5.874;2023-08-01T05:04:13;63.98;39.05;72.52;;
73638;Laerm;53743;51.100;5.874;2023-08-01T05:05:16;62.04;43.46;71.85;;
73638;Laerm;53743;51.100;5.874;2023-08-01T05:06:17;58.88;38.79;69.97;;
73638;Laerm;53743;51.100;5.874;2023-08-01T05:07:18;61.57;41.61;71.11;;
73638;Laerm;53743;51.100;5.874;2023-08-01T05:08:20;60.08;40.13;72.23;;
73638;Laerm;53743;51.100;5.874;2023-08-01T05:09:21;64.32;41.29;74.83;;
73638;Laerm;53743;51.100;5.874;2023-08-01T05:10:23;61.75;39.95;73.32;;
73638;Laerm;53743;51.100;5.874;2023-08-01T05:11:24;56.79;36.10;72.19;;
73638;Laerm;53743;51.100;5.874;2023-08-01T05:12:26;47.13;36.13;62.33;;
73638;Laerm;53743;51.100;5.874;2023-08-01T05:13:29;60.84;39.17;72.50;;
73638;Laerm;53743;51.100;5.874;2023-08-01T05:14:31;60.78;39.38;71.22;;
73638;Laerm;53743;51.100;5.874;2023-08-01T05:15:32;63.46;41.13;75.87;;
73638;Laerm;53743;51.100;5.874;2023-08-01T05:16:34;57.71;37.30;72.37;;
73638;Laerm;53743;51.100;5.874;2023-08-01T05:17:35;62.31;38.13;75.89;;
73638;Laerm;53743;51.100;5.874;2023-08-01T05:18:37;62.68;40.06;75.18;;
73638;Laerm;53743;51.100;5.874;2023-08-01T05:19:38;62.26;42.22;76.37;;
73638;Laerm;53743;51.100;5.874;2023-08-01T05:20:40;60.52;37.20;73.99;;
73638;Laerm;53743;51.100;5.874;2023-08-01T05:21:41;59.75;37.86;71.15;;
73638;Laerm;53743;51.100;5.874;2023-08-01T05:22:43;60.19;38.09;74.72;;
73638;Laerm;53743;51.100;5.874;2023-08-01T05:23:44;41.70;37.60;55.03;;
73638;Laerm;53743;51.100;5.874;2023-08-01T05:24:46;61.82;39.16;75.89;;
73638;Laerm;53743;51.100;5.874;2023-08-01T05:25:47;65.59;45.94;77.37;;
73638;Laerm;53743;51.100;5.874;2023-08-01T05:26:49;65.54;53.41;75.92;;
73638;Laerm;53743;51.100;5.874;2023-08-01T05:27:51;61.98;49.72;73.87;;
73638;Laerm;53743;51.100;5.874;2023-08-01T05:28:54;64.89;46.66;78.99;;
73638;Laerm;53743;51.100;5.874;2023-08-01T05:29:55;62.94;46.06;73.06;;
73638;Laerm;53743;51.100;5.874;2023-08-01T05:30:57;62.82;43.54;73.47;;
73638;Laerm;53743;51.100;5.874;2023-08-01T05:31:58;63.49;49.02;74.13;;
73638;Laerm;53743;51.100;5.874;2023-08-01T05:33:01;60.29;47.72;72.45;;
73638;Laerm;53743;51.100;5.874;2023-08-01T05:34:02;63.24;47.96;72.65;;
73638;Laerm;53743;51.100;5.874;2023-08-01T05:35:05;62.48;48.13;72.38;;
73638;Laerm;53743;51.100;5.874;2023-08-01T05:36:06;62.62;43.20;73.33;;
73638;Laerm;53743;51.100;5.874;2023-08-01T05:37:08;62.14;39.47;75.68;;
73638;Laerm;53743;51.100;5.874;2023-08-01T05:38:09;64.39;44.75;73.01;;
73638;Laerm;53743;51.100;5.874;2023-08-01T05:39:11;62.24;39.68;72.83;;
73638;Laerm;53743;51.100;5.874;2023-08-01T05:40:13;65.64;47.00;74.57;;
73638;Laerm;53743;51.100;5.874;2023-08-01T05:41:15;56.08;36.07;71.37;;
73638;Laerm;53743;51.100;5.874;2023-08-01T05:42:16;64.29;37.08;75.40;;
73638;Laerm;53743;51.100;5.874;2023-08-01T05:43:18;59.48;41.14;71.29;;
73638;Laerm;53743;51.100;5.874;2023-08-01T05:44:20;64.03;38.68;74.53;;
73638;Laerm;53743;51.100;5.874;2023-08-01T05:45:22;64.73;38.83;74.08;;
73638;Laerm;53743;51.100;5.874;2023-08-01T05:46:24;61.73;40.74;73.20;;
73638;Laerm;53743;51.100;5.874;2023-08-01T05:47:26;64.12;39.03;74.70;;
73638;Laerm;53743;51.100;5.874;2023-08-01T05:48:27;64.75;49.79;75.10;;